Time;durP1;ratioP1;P1;durP2;ratioP2;P2;SDS_P1;SDS_P2;PMS_P1;PMS_P2;Temp;Humidity;BMP_temperature;BMP_pressure;BME280_temperature;BME280_humidity;BME280_pressure;Samples;Min_cycle;Max_cycle;Signal;HPM_P1;HPM_P2
2022/06/18 00:01:40;;;;;;;5.88;2.58;;;;;;;;;;5041328;28;20223;-52
2022/06/18 00:04:07;;;;;;;2.47;2.20;;;;;;;;;;5040141;28;20237;-52
2022/06/18 00:06:36;;;;;;;4.55;3.05;;;;;;;;;;5045746;28;20239;-52
2022/06/18 00:09:03;;;;;;;3.65;2.58;;;;;;;;;;5053530;28;20287;-52
2022/06/18 00:14:14;;;;;;;2.70;2.50;;;;;;;;;;5041068;28;20236;-51
2022/06/18 00:16:40;;;;;;;3.42;3.10;;;;;;;;;;5032878;28;20232;-52
2022/06/18 00:19:06;;;;;;;2.50;2.30;;;;;;;;;;5036825;28;20246;-51
2022/06/18 00:21:34;;;;;;;3.20;2.65;;;;;;;;;;5041477;28;20238;-53
2022/06/18 00:24:01;;;;;;;5.25;3.13;;;;;;;;;;5044400;28;20232;-51
2022/06/18 00:26:27;;;;;;;2.78;2.58;;;;;;;;;;5030566;28;20236;-52
2022/06/18 00:28:53;;;;;;;3.55;2.75;;;;;;;;;;5045696;28;20243;-52
2022/06/18 00:31:20;;;;;;;3.85;3.30;;;;;;;;;;5033251;28;20231;-51
2022/06/18 00:33:46;;;;;;;3.65;3.28;;;;;;;;;;5044644;28;20236;-52
2022/06/18 00:36:15;;;;;;;3.42;3.15;;;;;;;;;;5041361;28;20258;-52
2022/06/18 00:38:44;;;;;;;3.63;3.10;;;;;;;;;;5046478;28;20238;-52
2022/06/18 00:41:14;;;;;;;4.43;3.80;;;;;;;;;;5046862;28;20315;-52
2022/06/18 00:43:42;;;;;;;4.88;3.35;;;;;;;;;;5046618;28;20241;-52
2022/06/18 00:46:13;;;;;;;3.83;3.53;;;;;;;;;;5029488;28;20236;-52
2022/06/18 00:48:41;;;;;;;3.75;3.45;;;;;;;;;;5044877;28;20228;-51
2022/06/18 00:51:10;;;;;;;2.90;2.60;;;;;;;;;;5042153;28;20345;-51
2022/06/18 00:53:42;;;;;;;3.83;3.45;;;;;;;;;;5044477;28;20255;-52
2022/06/18 00:56:13;;;;;;;5.88;3.15;;;;;;;;;;5044351;28;20228;-52
2022/06/18 00:58:41;;;;;;;3.38;3.03;;;;;;;;;;5046013;28;20236;-52
2022/06/18 01:01:12;;;;;;;3.83;3.47;;;;;;;;;;5043224;28;20721;-51
2022/06/18 01:03:39;;;;;;;3.58;3.28;;;;;;;;;;5046397;28;20235;-55
2022/06/18 01:06:11;;;;;;;4.63;3.53;;;;;;;;;;5036161;28;20592;-52
2022/06/18 01:08:39;;;;;;;3.65;3.35;;;;;;;;;;5045935;28;20231;-53
2022/06/18 01:11:09;;;;;;;4.85;3.78;;;;;;;;;;5032283;28;20267;-54
2022/06/18 01:13:39;;;;;;;4.40;3.20;;;;;;;;;;5041609;28;20706;-51
2022/06/18 01:16:07;;;;;;;4.10;3.70;;;;;;;;;;5040270;28;20310;-52
2022/06/18 01:18:33;;;;;;;3.83;3.53;;;;;;;;;;5046402;28;20242;-50
2022/06/18 01:21:02;;;;;;;4.30;3.95;;;;;;;;;;5039951;28;20809;-51
2022/06/18 01:23:33;;;;;;;4.45;3.70;;;;;;;;;;5045365;28;20892;-52
2022/06/18 01:26:00;;;;;;;4.18;3.88;;;;;;;;;;5045496;28;20235;-52
2022/06/18 01:28:27;;;;;;;7.72;3.58;;;;;;;;;;5045894;28;20315;-51
2022/06/18 01:30:54;;;;;;;4.43;4.03;;;;;;;;;;5035543;28;20232;-53
2022/06/18 01:33:20;;;;;;;4.32;3.92;;;;;;;;;;5027268;28;20232;-52
2022/06/18 01:35:48;;;;;;;4.10;3.70;;;;;;;;;;5036736;28;20546;-51
2022/06/18 01:38:14;;;;;;;5.78;3.10;;;;;;;;;;5033905;28;20319;-52
2022/06/18 01:40:43;;;;;;;4.20;3.78;;;;;;;;;;5039616;28;20233;-52
2022/06/18 01:43:13;;;;;;;4.15;3.75;;;;;;;;;;5045827;28;20285;-53
2022/06/18 01:45:41;;;;;;;4.00;3.70;;;;;;;;;;5041333;28;20246;-53
2022/06/18 01:48:09;;;;;;;3.70;3.40;;;;;;;;;;5046301;28;20530;-50
2022/06/18 01:50:39;;;;;;;4.28;3.15;;;;;;;;;;5041578;28;20590;-51
2022/06/18 01:53:08;;;;;;;3.65;3.22;;;;;;;;;;5044714;28;20589;-52
2022/06/18 01:55:37;;;;;;;3.47;3.17;;;;;;;;;;5044311;28;20228;-52
2022/06/18 01:58:06;;;;;;;3.60;3.30;;;;;;;;;;5043218;28;20223;-51
2022/06/18 02:00:34;;;;;;;4.40;3.33;;;;;;;;;;5039643;28;20229;-51
2022/06/18 02:03:01;;;;;;;7.47;3.08;;;;;;;;;;5034814;28;20331;-52
2022/06/18 02:05:29;;;;;;;3.70;3.08;;;;;;;;;;5041137;28;20240;-52
2022/06/18 02:07:55;;;;;;;3.65;3.22;;;;;;;;;;5045628;28;20231;-55
2022/06/18 02:10:23;;;;;;;4.55;2.78;;;;;;;;;;5042110;28;20236;-51
2022/06/18 02:12:50;;;;;;;3.33;3.13;;;;;;;;;;5044387;28;20242;-52
2022/06/18 02:15:18;;;;;;;2.90;2.70;;;;;;;;;;5040055;28;20235;-52
2022/06/18 02:17:46;;;;;;;3.20;3.00;;;;;;;;;;5043417;28;20231;-53
2022/06/18 02:20:15;;;;;;;4.82;3.20;;;;;;;;;;5043817;28;20322;-52
2022/06/18 02:22:43;;;;;;;3.55;3.25;;;;;;;;;;5027768;28;20648;-51
2022/06/18 02:25:10;;;;;;;7.65;3.15;;;;;;;;;;5045568;28;20241;-51
2022/06/18 02:27:39;;;;;;;3.90;2.85;;;;;;;;;;5034972;28;20244;-52
2022/06/18 02:30:06;;;;;;;3.15;2.85;;;;;;;;;;5042122;28;20228;-52
2022/06/18 02:32:35;;;;;;;3.05;2.45;;;;;;;;;;5041736;28;20239;-63
2022/06/18 02:35:05;;;;;;;3.05;2.78;;;;;;;;;;5026748;28;20286;-52
2022/06/18 02:37:32;;;;;;;3.20;2.90;;;;;;;;;;5027657;28;20233;-51
2022/06/18 02:39:59;;;;;;;4.95;3.10;;;;;;;;;;5029675;28;20258;-52
2022/06/18 02:42:27;;;;;;;3.20;2.90;;;;;;;;;;5027756;28;20240;-51
2022/06/18 02:44:53;;;;;;;2.60;2.40;;;;;;;;;;5032413;28;20330;-51
2022/06/18 02:47:21;;;;;;;5.13;2.67;;;;;;;;;;5038851;28;20235;-52
2022/06/18 02:49:50;;;;;;;4.25;2.75;;;;;;;;;;5044355;28;20851;-51
2022/06/18 02:52:18;;;;;;;3.08;2.10;;;;;;;;;;5031321;28;20239;-51
2022/06/18 02:54:44;;;;;;;5.05;2.60;;;;;;;;;;5044779;28;20232;-52
2022/06/18 02:57:16;;;;;;;3.85;2.90;;;;;;;;;;5039897;28;20267;-51
2022/06/18 02:59:42;;;;;;;2.92;2.72;;;;;;;;;;5044560;28;20740;-53
2022/06/18 03:02:08;;;;;;;3.00;2.70;;;;;;;;;;5031310;28;20229;-51
2022/06/18 03:04:35;;;;;;;4.70;2.65;;;;;;;;;;5041075;28;20375;-51
2022/06/18 03:07:01;;;;;;;2.95;2.75;;;;;;;;;;5031971;28;20252;-52
2022/06/18 03:09:29;;;;;;;2.80;2.60;;;;;;;;;;5039819;28;20626;-51
2022/06/18 03:12:06;;;;;;;2.60;2.40;;;;;;;;;;5034597;28;20236;-52
2022/06/18 03:14:33;;;;;;;3.25;2.67;;;;;;;;;;5040447;28;20811;-52
2022/06/18 03:16:59;;;;;;;2.92;2.67;;;;;;;;;;5043295;28;20238;-52
2022/06/18 03:19:31;;;;;;;5.88;2.85;;;;;;;;;;5038761;28;20743;-52
2022/06/18 03:22:00;;;;;;;3.03;2.72;;;;;;;;;;5037508;28;20323;-50
2022/06/18 03:24:26;;;;;;;2.53;2.25;;;;;;;;;;5025526;28;20235;-52
2022/06/18 03:26:54;;;;;;;3.65;2.55;;;;;;;;;;5017120;28;20237;-51
2022/06/18 03:29:20;;;;;;;2.67;2.50;;;;;;;;;;5005131;28;20229;-52
2022/06/18 03:31:47;;;;;;;3.00;2.80;;;;;;;;;;5016461;28;20316;-51
2022/06/18 03:34:13;;;;;;;2.60;2.40;;;;;;;;;;5013082;28;20243;-51
2022/06/18 03:36:40;;;;;;;3.10;2.80;;;;;;;;;;5023337;28;20278;-51
2022/06/18 03:39:08;;;;;;;2.75;2.55;;;;;;;;;;5028335;28;20279;-51
2022/06/18 03:41:34;;;;;;;3.10;2.83;;;;;;;;;;5023184;28;20229;-52
2022/06/18 03:44:02;;;;;;;3.22;2.92;;;;;;;;;;5027177;28;20710;-51
2022/06/18 03:46:29;;;;;;;3.58;2.97;;;;;;;;;;5044191;28;20650;-51
2022/06/18 03:48:56;;;;;;;2.72;2.53;;;;;;;;;;5028398;28;20241;-52
2022/06/18 03:51:23;;;;;;;2.92;2.72;;;;;;;;;;5025608;28;20318;-51
2022/06/18 03:53:50;;;;;;;1.95;1.75;;;;;;;;;;5035856;28;20242;-51
2022/06/18 03:56:17;;;;;;;3.53;2.28;;;;;;;;;;5050053;28;20306;-51
2022/06/18 03:58:45;;;;;;;2.33;1.80;;;;;;;;;;5030291;28;20711;-57
2022/06/18 04:01:14;;;;;;;3.42;2.50;;;;;;;;;;5047647;28;20228;-51
2022/06/18 04:03:40;;;;;;;3.15;2.20;;;;;;;;;;5022057;28;20242;-51
2022/06/18 04:06:07;;;;;;;2.10;2.00;;;;;;;;;;5039121;28;20224;-52
2022/06/18 04:08:33;;;;;;;4.85;2.38;;;;;;;;;;5026573;28;20244;-52
2022/06/18 04:11:00;;;;;;;6.05;2.10;;;;;;;;;;5029023;28;20238;-52
2022/06/18 04:13:28;;;;;;;2.95;2.20;;;;;;;;;;5052823;28;20236;-51
2022/06/18 04:15:54;;;;;;;2.42;2.20;;;;;;;;;;5040428;28;20233;-64
2022/06/18 04:18:22;;;;;;;2.15;1.95;;;;;;;;;;5027655;28;20821;-51
2022/06/18 04:20:49;;;;;;;2.08;1.90;;;;;;;;;;5028005;28;20239;-52
2022/06/18 04:23:15;;;;;;;5.40;2.30;;;;;;;;;;5014790;28;20676;-52
2022/06/18 04:25:42;;;;;;;2.17;2.08;;;;;;;;;;5027864;28;20232;-51
2022/06/18 04:28:09;;;;;;;2.45;2.25;;;;;;;;;;5027020;28;20336;-52
2022/06/18 04:30:36;;;;;;;2.70;2.28;;;;;;;;;;5057809;28;20285;-51
2022/06/18 04:33:02;;;;;;;4.78;2.20;;;;;;;;;;5034676;28;20240;-53
2022/06/18 04:35:30;;;;;;;3.50;1.63;;;;;;;;;;5027589;28;20263;-52
2022/06/18 04:37:57;;;;;;;2.60;1.92;;;;;;;;;;5008233;28;20241;-52
2022/06/18 04:40:31;;;;;;;1.77;1.67;;;;;;;;;;5014339;28;20290;-52
2022/06/18 04:42:58;;;;;;;2.17;1.98;;;;;;;;;;5028489;28;20224;-50
2022/06/18 04:45:24;;;;;;;2.65;1.75;;;;;;;;;;5056384;28;20242;-54
2022/06/18 04:47:51;;;;;;;2.17;1.80;;;;;;;;;;5037818;28;20236;-51
2022/06/18 04:50:18;;;;;;;1.75;1.65;;;;;;;;;;5041085;28;20343;-53
2022/06/18 04:52:46;;;;;;;2.63;2.20;;;;;;;;;;5023926;28;20345;-51
2022/06/18 04:55:13;;;;;;;1.90;1.80;;;;;;;;;;5026953;28;20251;-51
2022/06/18 04:57:39;;;;;;;2.50;2.03;;;;;;;;;;5022050;28;20736;-51
2022/06/18 05:00:07;;;;;;;3.45;1.92;;;;;;;;;;5039334;28;20237;-52
2022/06/18 05:02:35;;;;;;;2.25;1.63;;;;;;;;;;5030294;28;20299;-52
2022/06/18 05:05:01;;;;;;;2.17;2.00;;;;;;;;;;5027017;28;20241;-52
2022/06/18 05:07:28;;;;;;;1.98;1.52;;;;;;;;;;5022516;28;20312;-53
2022/06/18 05:09:56;;;;;;;2.05;1.90;;;;;;;;;;5009767;28;20252;-52
2022/06/18 05:12:22;;;;;;;4.60;1.90;;;;;;;;;;5039090;28;20306;-52
2022/06/18 05:14:48;;;;;;;1.75;1.65;;;;;;;;;;5036067;28;20231;-50
2022/06/18 05:17:16;;;;;;;2.35;1.83;;;;;;;;;;5022051;28;20331;-51
2022/06/18 05:19:43;;;;;;;4.70;1.45;;;;;;;;;;5042368;28;20238;-53
2022/06/18 05:22:09;;;;;;;1.90;1.80;;;;;;;;;;5045429;28;20238;-51
2022/06/18 05:24:36;;;;;;;1.23;1.23;;;;;;;;;;5044942;28;20236;-52
2022/06/18 05:27:04;;;;;;;1.38;1.38;;;;;;;;;;5046316;28;20236;-51
2022/06/18 05:29:31;;;;;;;1.85;1.70;;;;;;;;;;5025470;28;20229;-54
2022/06/18 05:31:57;;;;;;;3.63;1.88;;;;;;;;;;5040949;28;20318;-51
2022/06/18 05:34:24;;;;;;;1.35;1.25;;;;;;;;;;5059017;28;20990;-52
2022/06/18 05:36:50;;;;;;;3.70;2.05;;;;;;;;;;5038311;28;20328;-51
2022/06/18 05:39:18;;;;;;;2.47;2.20;;;;;;;;;;5018643;28;20237;-51
2022/06/18 05:41:45;;;;;;;1.67;1.58;;;;;;;;;;5024992;28;20238;-52
2022/06/18 05:44:12;;;;;;;2.78;1.85;;;;;;;;;;5021988;28;20339;-50
2022/06/18 05:46:39;;;;;;;1.50;1.40;;;;;;;;;;5025930;28;20263;-51
2022/06/18 05:49:05;;;;;;;2.08;1.95;;;;;;;;;;5010839;28;20720;-51
2022/06/18 05:51:32;;;;;;;1.95;1.85;;;;;;;;;;5015060;28;20240;-51
2022/06/18 05:53:58;;;;;;;2.33;2.13;;;;;;;;;;5015069;28;20244;-52
2022/06/18 05:56:25;;;;;;;2.08;1.88;;;;;;;;;;5033179;28;20566;-52
2022/06/18 05:58:51;;;;;;;4.32;2.00;;;;;;;;;;5037219;28;20298;-52
2022/06/18 06:01:19;;;;;;;2.30;2.10;;;;;;;;;;5025246;28;20243;-52
2022/06/18 06:03:45;;;;;;;2.72;2.05;;;;;;;;;;5018934;28;20317;-52
2022/06/18 06:06:12;;;;;;;2.65;1.92;;;;;;;;;;5018165;28;20247;-52
2022/06/18 06:08:38;;;;;;;2.20;2.00;;;;;;;;;;5017628;28;20236;-51
2022/06/18 06:13:49;;;;;;;2.15;1.85;;;;;;;;;;5016302;28;20749;-51
2022/06/18 06:16:15;;;;;;;4.10;2.40;;;;;;;;;;5023292;28;20315;-51
2022/06/18 06:18:43;;;;;;;3.65;2.80;;;;;;;;;;5023575;28;20713;-51
2022/06/18 06:21:09;;;;;;;3.95;2.30;;;;;;;;;;5020828;28;20232;-52
2022/06/18 06:23:36;;;;;;;2.42;1.90;;;;;;;;;;5013879;28;20240;-51
2022/06/18 06:26:02;;;;;;;4.07;2.40;;;;;;;;;;5025420;28;20240;-51
2022/06/18 06:28:30;;;;;;;2.53;2.33;;;;;;;;;;5022391;28;20259;-53
2022/06/18 06:30:57;;;;;;;3.55;3.08;;;;;;;;;;5026047;28;20232;-52
2022/06/18 06:33:23;;;;;;;3.00;2.35;;;;;;;;;;5023356;28;20225;-51
2022/06/18 06:35:55;;;;;;;2.55;2.35;;;;;;;;;;5019608;28;20239;-53
2022/06/18 06:38:21;;;;;;;3.45;2.53;;;;;;;;;;5021093;28;20729;-51
2022/06/18 06:40:47;;;;;;;4.05;2.70;;;;;;;;;;5024342;28;20221;-51
2022/06/18 06:43:15;;;;;;;3.28;2.67;;;;;;;;;;5018668;28;20265;-51
2022/06/18 06:45:41;;;;;;;2.35;2.15;;;;;;;;;;5020529;28;20237;-52
2022/06/18 06:48:08;;;;;;;2.38;2.22;;;;;;;;;;5023632;28;20796;-52
2022/06/18 06:50:35;;;;;;;4.13;2.67;;;;;;;;;;5015241;28;20256;-52
2022/06/18 06:53:02;;;;;;;2.50;2.05;;;;;;;;;;5029766;28;20241;-51
2022/06/18 06:58:14;;;;;;;2.65;2.40;;;;;;;;;;5021333;28;20313;-51
2022/06/18 07:00:42;;;;;;;2.70;2.35;;;;;;;;;;5020954;28;20252;-51
2022/06/18 07:03:10;;;;;;;2.90;2.70;;;;;;;;;;5024642;28;20237;-51
2022/06/18 07:05:36;;;;;;;4.15;2.95;;;;;;;;;;5026933;28;20251;-51
2022/06/18 07:08:04;;;;;;;2.80;2.50;;;;;;;;;;5035050;28;20319;-52
2022/06/18 07:10:30;;;;;;;2.90;2.70;;;;;;;;;;5011470;28;20239;-51
2022/06/18 07:12:57;;;;;;;2.42;2.22;;;;;;;;;;5028532;28;20248;-51
2022/06/18 07:15:23;;;;;;;3.60;2.25;;;;;;;;;;5012007;28;20228;-51
2022/06/18 07:17:50;;;;;;;2.58;2.40;;;;;;;;;;5027942;28;20360;-52
2022/06/18 07:20:17;;;;;;;3.88;2.78;;;;;;;;;;5025894;28;20260;-52
2022/06/18 07:22:44;;;;;;;3.33;2.22;;;;;;;;;;5028519;28;20241;-52
2022/06/18 07:25:13;;;;;;;2.53;1.90;;;;;;;;;;5027831;28;20236;-51
2022/06/18 07:27:39;;;;;;;3.03;2.55;;;;;;;;;;5028510;28;20241;-52
2022/06/18 07:30:08;;;;;;;3.95;2.35;;;;;;;;;;5036730;28;20236;-52
2022/06/18 07:32:35;;;;;;;2.47;2.28;;;;;;;;;;5042359;28;20236;-51
2022/06/18 07:35:01;;;;;;;2.38;2.15;;;;;;;;;;5019497;28;20228;-52
2022/06/18 07:37:29;;;;;;;2.63;1.98;;;;;;;;;;5037567;28;20225;-50
2022/06/18 07:39:55;;;;;;;2.58;2.08;;;;;;;;;;5047030;28;20232;-52
2022/06/18 07:42:24;;;;;;;3.17;2.25;;;;;;;;;;5045739;28;20306;-51
2022/06/18 07:44:50;;;;;;;4.50;2.10;;;;;;;;;;5046090;28;20236;-51
2022/06/18 07:47:18;;;;;;;4.50;2.38;;;;;;;;;;5046213;28;20257;-51
2022/06/18 07:49:45;;;;;;;2.53;1.95;;;;;;;;;;5034659;28;20239;-51
2022/06/18 07:52:12;;;;;;;4.90;3.00;;;;;;;;;;5021235;28;20685;-53
2022/06/18 07:54:39;;;;;;;2.60;2.40;;;;;;;;;;5031228;28;20228;-51
2022/06/18 07:57:06;;;;;;;4.55;1.80;;;;;;;;;;5026706;28;20236;-51
2022/06/18 07:59:34;;;;;;;3.03;2.03;;;;;;;;;;5047677;28;20233;-51
2022/06/18 08:02:00;;;;;;;2.55;2.00;;;;;;;;;;5027774;28;20243;-51
2022/06/18 08:04:27;;;;;;;2.38;2.17;;;;;;;;;;5026036;28;20236;-52
2022/06/18 08:06:54;;;;;;;3.00;2.10;;;;;;;;;;5023391;28;20707;-51
2022/06/18 08:09:20;;;;;;;2.45;2.20;;;;;;;;;;5023250;28;20228;-52
2022/06/18 08:11:47;;;;;;;1.83;1.70;;;;;;;;;;5030187;28;20362;-51
2022/06/18 08:14:13;;;;;;;2.35;1.90;;;;;;;;;;5026966;28;20232;-51
2022/06/18 08:16:44;;;;;;;1.55;1.45;;;;;;;;;;5024989;28;20311;-52
2022/06/18 08:19:10;;;;;;;4.47;2.03;;;;;;;;;;5013496;28;20315;-53
2022/06/18 08:21:39;;;;;;;4.10;2.35;;;;;;;;;;5026217;28;20657;-51
2022/06/18 08:24:09;;;;;;;1.60;1.50;;;;;;;;;;5024717;28;20712;-52
2022/06/18 08:26:37;;;;;;;1.95;1.85;;;;;;;;;;5035962;28;20774;-51
2022/06/18 08:29:04;;;;;;;2.30;1.80;;;;;;;;;;5039451;28;20236;-51
2022/06/18 08:31:31;;;;;;;2.67;1.80;;;;;;;;;;5021678;28;20302;-52
2022/06/18 08:33:58;;;;;;;2.15;1.95;;;;;;;;;;5026982;28;20252;-51
2022/06/18 08:36:25;;;;;;;4.82;2.10;;;;;;;;;;5019047;28;20239;-53
2022/06/18 08:38:52;;;;;;;3.05;1.83;;;;;;;;;;5029396;28;20240;-51
2022/06/18 08:41:33;;;;;;;1.95;1.85;;;;;;;;;;5026250;28;20271;-52
2022/06/18 08:44:09;;;;;;;2.25;1.80;;;;;;;;;;5030650;28;20235;-55
2022/06/18 08:46:39;;;;;;;1.90;1.80;;;;;;;;;;5020845;28;20232;-53
2022/06/18 08:49:39;;;;;;;2.65;1.83;;;;;;;;;;5026615;28;20236;-51
2022/06/18 08:52:16;;;;;;;3.38;1.60;;;;;;;;;;4964046;28;20246;-54
2022/06/18 08:54:46;;;;;;;1.80;1.70;;;;;;;;;;4971024;28;20317;-51
2022/06/18 08:57:18;;;;;;;3.72;2.13;;;;;;;;;;4993836;28;20324;-52
2022/06/18 08:59:50;;;;;;;4.20;1.40;;;;;;;;;;5011642;28;20248;-52
2022/06/18 09:02:22;;;;;;;2.15;1.70;;;;;;;;;;5026813;28;20232;-51
2022/06/18 09:04:54;;;;;;;5.28;1.70;;;;;;;;;;5026974;28;20251;-65
2022/06/18 09:07:36;;;;;;;1.95;1.60;;;;;;;;;;5023621;28;20331;-52
2022/06/18 09:10:09;;;;;;;3.10;2.15;;;;;;;;;;4996089;28;20236;-52
2022/06/18 09:12:38;;;;;;;2.25;1.55;;;;;;;;;;5026927;28;20239;-58
2022/06/18 09:15:08;;;;;;;1.67;1.58;;;;;;;;;;5023393;28;20251;-51
2022/06/18 09:17:36;;;;;;;1.52;1.42;;;;;;;;;;5017171;28;20256;-51
2022/06/18 09:20:04;;;;;;;2.85;1.63;;;;;;;;;;5014389;28;20332;-52
2022/06/18 09:22:31;;;;;;;3.20;1.88;;;;;;;;;;5029776;28;20748;-52
2022/06/18 09:25:02;;;;;;;3.35;1.88;;;;;;;;;;5036137;28;20248;-52
2022/06/18 09:27:34;;;;;;;4.75;1.60;;;;;;;;;;5021962;28;20319;-51
2022/06/18 09:30:06;;;;;;;2.45;1.33;;;;;;;;;;5022022;28;20244;-51
2022/06/18 09:32:36;;;;;;;7.93;1.70;;;;;;;;;;5013129;28;20228;-51
2022/06/18 09:35:07;;;;;;;5.78;1.70;;;;;;;;;;5019617;28;20233;-51
2022/06/18 09:37:36;;;;;;;1.75;1.40;;;;;;;;;;5022575;28;20761;-52
2022/06/18 09:40:04;;;;;;;3.83;2.15;;;;;;;;;;5021583;28;20298;-51
2022/06/18 09:42:35;;;;;;;1.70;1.60;;;;;;;;;;5027868;28;20812;-54
2022/06/18 09:45:03;;;;;;;2.03;1.92;;;;;;;;;;5021829;28;20267;-56
2022/06/18 09:47:32;;;;;;;1.67;1.58;;;;;;;;;;5015188;28;20235;-54
2022/06/18 09:49:59;;;;;;;3.28;1.90;;;;;;;;;;5023573;28;20311;-52
2022/06/18 09:52:34;;;;;;;2.55;1.70;;;;;;;;;;5020198;28;20243;-51
2022/06/18 09:55:04;;;;;;;5.35;2.40;;;;;;;;;;5024832;28;20242;-53
2022/06/18 09:57:33;;;;;;;5.78;2.30;;;;;;;;;;5023099;28;20236;-52
2022/06/18 10:00:04;;;;;;;3.00;1.65;;;;;;;;;;5020461;28;20249;-53
2022/06/18 10:02:32;;;;;;;3.88;1.75;;;;;;;;;;5020733;28;20761;-52
2022/06/18 10:07:45;;;;;;;4.72;2.00;;;;;;;;;;5016660;28;20239;-52
2022/06/18 10:10:14;;;;;;;6.82;2.42;;;;;;;;;;5018388;28;20644;-51
2022/06/18 10:12:41;;;;;;;4.07;1.90;;;;;;;;;;5019898;28;20467;-51
2022/06/18 10:15:10;;;;;;;6.57;2.38;;;;;;;;;;5019028;28;20255;-51
2022/06/18 10:17:43;;;;;;;2.30;2.13;;;;;;;;;;5022986;28;20229;-52
2022/06/18 10:20:11;;;;;;;3.00;2.22;;;;;;;;;;5024763;28;20225;-52
2022/06/18 10:22:41;;;;;;;5.03;2.40;;;;;;;;;;5023247;28;20246;-52
2022/06/18 10:25:16;;;;;;;2.47;1.92;;;;;;;;;;5013599;28;20722;-53
2022/06/18 10:27:46;;;;;;;2.25;2.05;;;;;;;;;;5037991;28;20228;-51
2022/06/18 10:30:15;;;;;;;2.75;2.22;;;;;;;;;;5022396;28;20228;-52
2022/06/18 10:32:51;;;;;;;3.78;2.13;;;;;;;;;;5019504;28;20241;-52
2022/06/18 10:35:38;;;;;;;2.83;2.00;;;;;;;;;;5023578;28;20716;-51
2022/06/18 10:38:15;;;;;;;4.57;2.53;;;;;;;;;;5033996;28;20254;-51
2022/06/18 10:40:46;;;;;;;3.10;1.90;;;;;;;;;;5019736;28;20232;-51
2022/06/18 10:43:17;;;;;;;4.93;2.70;;;;;;;;;;5017370;28;20608;-52
2022/06/18 10:45:48;;;;;;;2.53;1.90;;;;;;;;;;5020949;28;20236;-52
2022/06/18 10:48:16;;;;;;;2.88;2.38;;;;;;;;;;5016645;28;20250;-52
2022/06/18 10:50:44;;;;;;;2.35;1.90;;;;;;;;;;5022897;28;20232;-52
2022/06/18 10:53:13;;;;;;;4.07;2.13;;;;;;;;;;5013801;28;20786;-51
2022/06/18 10:55:40;;;;;;;4.07;2.10;;;;;;;;;;5021320;28;20302;-52
2022/06/18 10:58:08;;;;;;;6.68;2.45;;;;;;;;;;5023970;28;20232;-52
2022/06/18 11:00:34;;;;;;;2.28;1.90;;;;;;;;;;5026909;28;20279;-53
2022/06/18 11:03:03;;;;;;;4.85;1.92;;;;;;;;;;5022363;28;20264;-51
2022/06/18 11:05:30;;;;;;;4.30;2.03;;;;;;;;;;5021747;28;20259;-51
2022/06/18 11:08:00;;;;;;;4.20;2.00;;;;;;;;;;5022026;28;20243;-51
2022/06/18 11:10:37;;;;;;;2.90;2.20;;;;;;;;;;5023988;28;20256;-51
2022/06/18 11:13:05;;;;;;;5.93;3.08;;;;;;;;;;5015321;28;20240;-51
2022/06/18 11:15:33;;;;;;;2.88;2.08;;;;;;;;;;5016184;28;20569;-52
2022/06/18 11:18:00;;;;;;;2.28;2.08;;;;;;;;;;5027160;28;20241;-51
2022/06/18 11:20:29;;;;;;;4.97;2.40;;;;;;;;;;5024045;28;20319;-52
2022/06/18 11:22:57;;;;;;;6.55;2.40;;;;;;;;;;5038211;28;20316;-52
2022/06/18 11:25:28;;;;;;;3.45;2.22;;;;;;;;;;5024246;28;20246;-52
2022/06/18 11:27:57;;;;;;;8.40;2.88;;;;;;;;;;5023064;28;20240;-51
2022/06/18 11:30:25;;;;;;;8.00;2.35;;;;;;;;;;5020596;28;20236;-52
2022/06/18 11:32:52;;;;;;;7.40;3.75;;;;;;;;;;5024850;28;20633;-51
2022/06/18 11:35:20;;;;;;;8.75;3.03;;;;;;;;;;5022771;28;20236;-51
2022/06/18 11:37:57;;;;;;;2.05;1.83;;;;;;;;;;5018370;28;20237;-51
2022/06/18 11:40:24;;;;;;;4.97;2.53;;;;;;;;;;5034972;28;20231;-51
2022/06/18 11:42:51;;;;;;;10.05;3.28;;;;;;;;;;5021443;28;20773;-52
2022/06/18 11:45:23;;;;;;;5.75;2.20;;;;;;;;;;5022141;28;20307;-51
2022/06/18 11:47:52;;;;;;;5.55;2.72;;;;;;;;;;5012592;28;20232;-54
2022/06/18 11:50:23;;;;;;;4.05;2.53;;;;;;;;;;5015762;28;20571;-54
2022/06/18 11:52:51;;;;;;;4.95;2.22;;;;;;;;;;5020787;28;20235;-54
2022/06/18 11:55:22;;;;;;;7.70;2.50;;;;;;;;;;5024270;28;20716;-54
2022/06/18 11:57:52;;;;;;;10.55;2.63;;;;;;;;;;5025761;28;20227;-54
2022/06/18 12:00:20;;;;;;;5.88;2.88;;;;;;;;;;5021277;28;20621;-54
2022/06/18 12:02:52;;;;;;;5.72;2.47;;;;;;;;;;5020841;28;20237;-53
2022/06/18 12:05:22;;;;;;;5.22;2.65;;;;;;;;;;5023177;28;20242;-55
2022/06/18 12:07:50;;;;;;;7.43;3.08;;;;;;;;;;5024330;28;20599;-55
2022/06/18 12:10:18;;;;;;;5.30;2.35;;;;;;;;;;5024063;28;20483;-55
2022/06/18 12:12:51;;;;;;;8.10;2.70;;;;;;;;;;5025514;28;20266;-55
2022/06/18 12:15:23;;;;;;;6.57;2.50;;;;;;;;;;5025138;28;20238;-55
2022/06/18 12:17:51;;;;;;;4.82;2.75;;;;;;;;;;5017962;28;20339;-53
2022/06/18 12:20:28;;;;;;;4.30;2.97;;;;;;;;;;5026076;28;20236;-54
2022/06/18 12:22:59;;;;;;;6.10;2.83;;;;;;;;;;5024247;28;20374;-54
2022/06/18 12:25:36;;;;;;;4.38;2.78;;;;;;;;;;5025785;28;20235;-55
2022/06/18 12:28:07;;;;;;;5.78;2.40;;;;;;;;;;5024493;28;20234;-55
2022/06/18 12:30:35;;;;;;;3.88;2.40;;;;;;;;;;5030544;28;20298;-54
2022/06/18 12:33:05;;;;;;;8.05;3.20;;;;;;;;;;5024312;28;20721;-54
2022/06/18 12:35:36;;;;;;;7.53;3.05;;;;;;;;;;5025597;28;20228;-55
2022/06/18 12:38:09;;;;;;;5.95;2.90;;;;;;;;;;5024604;28;20238;-54
2022/06/18 12:40:40;;;;;;;6.10;3.50;;;;;;;;;;5024650;28;20539;-54
2022/06/18 12:43:12;;;;;;;4.57;3.10;;;;;;;;;;5020954;28;20235;-54
2022/06/18 12:45:42;;;;;;;6.57;2.83;;;;;;;;;;5019155;28;20235;-54
2022/06/18 12:48:12;;;;;;;6.10;3.28;;;;;;;;;;5019025;28;20255;-52
2022/06/18 12:50:47;;;;;;;5.93;3.83;;;;;;;;;;5021427;28;20232;-54
2022/06/18 12:53:20;;;;;;;8.80;3.80;;;;;;;;;;5016612;28;20235;-54
2022/06/18 12:55:50;;;;;;;9.02;3.40;;;;;;;;;;5025094;28;20232;-54
2022/06/18 12:58:26;;;;;;;3.33;2.60;;;;;;;;;;5024495;28;20232;-54
2022/06/18 13:00:56;;;;;;;6.00;3.03;;;;;;;;;;5025126;28;20775;-55
2022/06/18 13:03:46;;;;;;;4.60;3.42;;;;;;;;;;5020408;28;20290;-54
2022/06/18 13:06:17;;;;;;;7.63;3.67;;;;;;;;;;4968338;28;20239;-53
2022/06/18 13:08:49;;;;;;;12.15;4.40;;;;;;;;;;5019578;28;20717;-53
2022/06/18 13:11:22;;;;;;;6.72;3.10;;;;;;;;;;5022259;28;20290;-55
2022/06/18 13:13:55;;;;;;;10.60;3.28;;;;;;;;;;5020657;28;20237;-53
2022/06/18 13:16:24;;;;;;;8.00;4.88;;;;;;;;;;5019186;28;20236;-54
2022/06/18 13:18:53;;;;;;;9.70;3.53;;;;;;;;;;5021674;28;20648;-53
2022/06/18 13:21:19;;;;;;;6.63;3.17;;;;;;;;;;5019344;28;20236;-53
2022/06/18 13:29:18;;;;;;;8.00;3.85;;;;;;;;;;5007760;28;20231;-54
2022/06/18 13:31:48;;;;;;;4.85;3.00;;;;;;;;;;5017745;28;20238;-54
2022/06/18 13:34:19;;;;;;;5.57;3.20;;;;;;;;;;5007471;28;20238;-54
2022/06/18 13:36:51;;;;;;;6.53;3.90;;;;;;;;;;5014767;28;20232;-53
2022/06/18 13:39:22;;;;;;;6.72;3.70;;;;;;;;;;5019051;28;20709;-53
2022/06/18 13:41:53;;;;;;;7.78;3.78;;;;;;;;;;5017930;28;20232;-54
2022/06/18 13:44:29;;;;;;;11.80;3.88;;;;;;;;;;5021340;28;20232;-54
2022/06/18 13:47:00;;;;;;;6.32;3.60;;;;;;;;;;5018567;28;20236;-55
2022/06/18 13:49:29;;;;;;;9.02;4.20;;;;;;;;;;5019974;28;20227;-55
2022/06/18 13:51:57;;;;;;;13.70;3.78;;;;;;;;;;5023774;28;20246;-54
2022/06/18 13:54:23;;;;;;;10.50;4.25;;;;;;;;;;5021801;28;20241;-54
2022/06/18 13:56:55;;;;;;;6.60;3.47;;;;;;;;;;5023122;28;20238;-53
2022/06/18 13:59:22;;;;;;;7.35;3.40;;;;;;;;;;5021709;28;20232;-53
2022/06/18 14:01:52;;;;;;;11.60;4.20;;;;;;;;;;5020509;28;20318;-54
2022/06/18 14:04:21;;;;;;;11.57;4.15;;;;;;;;;;5009527;28;20228;-53
2022/06/18 14:06:50;;;;;;;10.27;4.05;;;;;;;;;;5023762;28;20239;-54
2022/06/18 14:09:19;;;;;;;10.15;3.42;;;;;;;;;;5020816;28;20242;-55
2022/06/18 14:11:49;;;;;;;10.13;3.85;;;;;;;;;;5013958;28;20239;-53
2022/06/18 14:14:26;;;;;;;9.48;3.65;;;;;;;;;;5021939;28;20228;-54
2022/06/18 14:16:59;;;;;;;10.93;3.22;;;;;;;;;;5018260;28;20239;-54
2022/06/18 14:19:29;;;;;;;9.35;3.05;;;;;;;;;;5015459;28;20232;-53
2022/06/18 14:22:03;;;;;;;9.70;4.65;;;;;;;;;;5014619;28;20252;-55
2022/06/18 14:24:40;;;;;;;7.97;3.53;;;;;;;;;;5023395;28;20227;-54
2022/06/18 14:27:07;;;;;;;6.03;3.45;;;;;;;;;;5021663;28;20556;-53
2022/06/18 14:29:39;;;;;;;8.10;4.35;;;;;;;;;;5022743;28;20263;-54
2022/06/18 14:32:11;;;;;;;10.95;4.32;;;;;;;;;;5023236;28;20262;-54
2022/06/18 14:34:45;;;;;;;8.88;3.72;;;;;;;;;;5022386;28;20316;-53
2022/06/18 14:37:12;;;;;;;5.72;3.08;;;;;;;;;;5029527;28;20604;-55
2022/06/18 14:39:43;;;;;;;6.00;2.97;;;;;;;;;;5023938;28;20934;-54
2022/06/18 14:42:13;;;;;;;7.28;3.60;;;;;;;;;;5024071;28;20239;-53
2022/06/18 14:44:56;;;;;;;8.05;3.55;;;;;;;;;;5024156;28;20278;-54
2022/06/18 14:47:36;;;;;;;9.48;4.13;;;;;;;;;;5012104;28;20318;-55
2022/06/18 14:50:13;;;;;;;6.40;3.55;;;;;;;;;;5010819;28;20223;-54
2022/06/18 14:52:47;;;;;;;9.20;3.35;;;;;;;;;;5022002;28;20228;-54
2022/06/18 14:55:31;;;;;;;6.47;3.53;;;;;;;;;;5023704;28;20231;-54
2022/06/18 14:58:16;;;;;;;10.93;4.13;;;;;;;;;;5024256;28;20239;-54
2022/06/18 15:00:50;;;;;;;9.32;4.07;;;;;;;;;;5042665;28;20310;-54
2022/06/18 15:03:22;;;;;;;8.07;3.88;;;;;;;;;;5028290;28;20259;-53
2022/06/18 15:05:54;;;;;;;6.65;3.67;;;;;;;;;;5014727;28;20737;-54
2022/06/18 15:08:21;;;;;;;10.55;3.63;;;;;;;;;;5023489;28;20775;-53
2022/06/18 15:10:48;;;;;;;10.60;4.40;;;;;;;;;;5022704;28;20232;-54